Western Head, Canada
Current Conditions -  °F | °C
As of 2:00 PM on Tuesday 21 Oct 2014 (Local Time) from CYZX Reporting Station
Broken Clouds Broken Clouds  
Wind Chill: 59°   Ceiling: 23000
Heat Index: 59°   Visibility: 15mi
Dew Point: 43°   Wind: 8mph
Humidity: 55%   Direction: 290°WNW
Pressure: 30.14"   Gusts: NA
Location:  43.99°N, 64.68°W
Report Text: CYZX 211700Z 29007KT 15SM FEW030 BKN230 15/06 A3014 RMK SC2CI3 WNDY HILL 28002KT SLP208
Loading
Personal Weather Stations






























Interactive Weather Map New forecast layout! Learn more

10-Day Weather Forecast

Advertisements
Track Severe Weather on mobile